createdAt,value
2023-01-20T00:04:02.519Z,41.07
2023-01-20T00:09:05.378Z,41.02
2023-01-20T00:14:07.114Z,40.64
2023-01-20T00:19:12.167Z,40.94
2023-01-20T00:24:14.658Z,40.97
2023-01-20T00:29:16.477Z,40.88
2023-01-20T00:34:18.355Z,40.68
2023-01-20T00:39:20.053Z,40.80
2023-01-20T00:44:21.717Z,40.58
2023-01-20T00:49:23.460Z,40.54
2023-01-20T00:54:25.329Z,40.64
2023-01-20T00:59:27.319Z,40.55
2023-01-20T01:04:29.146Z,40.59
2023-01-20T01:09:32.551Z,40.88
2023-01-20T01:14:34.327Z,40.72
2023-01-20T01:19:35.996Z,40.67
2023-01-20T01:24:37.856Z,40.65
2023-01-20T01:29:39.668Z,40.52
2023-01-20T01:34:41.649Z,40.59
2023-01-20T01:39:43.320Z,40.63
2023-01-20T01:45:13.401Z,40.51
2023-01-20T01:50:21.538Z,40.77
2023-01-20T01:55:27.692Z,40.69
2023-01-20T02:00:29.821Z,40.64
2023-01-20T02:05:32.570Z,40.51
2023-01-20T02:10:34.229Z,40.43
2023-01-20T02:15:45.384Z,40.75
2023-01-20T02:20:54.503Z,40.66
2023-01-20T02:26:14.915Z,40.70
2023-01-20T02:31:50.082Z,40.74
2023-01-20T02:36:54.235Z,40.46
2023-01-20T02:42:01.559Z,40.61
2023-01-20T02:47:08.251Z,40.46
2023-01-20T02:52:21.090Z,40.51
2023-01-20T02:57:29.702Z,40.61
2023-01-20T03:02:36.162Z,40.59
2023-01-20T03:07:41.731Z,40.66
2023-01-20T03:13:02.992Z,40.59
2023-01-20T03:18:04.999Z,40.62
2023-01-20T03:23:06.955Z,40.71
2023-01-20T03:28:08.621Z,40.78
2023-01-20T03:33:12.048Z,40.40
2023-01-20T03:38:13.893Z,40.49
2023-01-20T03:43:45.715Z,40.53
2023-01-20T03:48:53.998Z,40.55
2023-01-20T03:54:04.052Z,40.48
2023-01-20T03:59:09.553Z,40.56
2023-01-20T04:04:18.092Z,40.75
2023-01-20T04:09:25.136Z,40.65
2023-01-20T04:14:26.835Z,40.43
2023-01-20T04:19:28.447Z,40.61
2023-01-20T04:25:20.807Z,40.61
2023-01-20T04:30:22.611Z,40.63
2023-01-20T04:35:24.444Z,40.45
2023-01-20T04:40:26.899Z,40.38
2023-01-20T04:45:28.570Z,40.34
2023-01-20T04:50:30.233Z,40.34
2023-01-20T04:55:33.353Z,40.36
2023-01-20T05:00:35.041Z,40.31
2023-01-20T05:05:36.720Z,40.57
2023-01-20T05:10:38.412Z,40.63
2023-01-20T05:15:40.677Z,40.30
2023-01-20T05:20:49.324Z,40.18
2023-01-20T05:25:52.057Z,40.27
2023-01-20T05:30:53.825Z,40.23
2023-01-20T05:35:56.128Z,40.25
2023-01-20T05:41:06.168Z,40.19
2023-01-20T05:46:07.917Z,40.44
2023-01-20T05:51:09.842Z,40.24
2023-01-20T05:56:16.366Z,40.52
2023-01-20T06:01:18.116Z,40.35
2023-01-20T06:06:19.873Z,40.57
2023-01-20T06:11:21.763Z,40.53
2023-01-20T06:16:23.942Z,40.33
2023-01-20T06:21:25.916Z,40.24
2023-01-20T06:26:27.623Z,40.43
2023-01-20T06:31:29.403Z,40.44
2023-01-20T06:36:31.082Z,40.36
2023-01-20T06:41:32.967Z,40.22
2023-01-20T06:46:34.794Z,40.42
2023-01-20T06:51:36.639Z,40.58
2023-01-20T06:56:38.316Z,40.28
2023-01-20T07:01:40.430Z,40.26
2023-01-20T07:06:42.631Z,40.38
2023-01-20T07:11:44.556Z,40.54
2023-01-20T07:16:46.805Z,40.54
2023-01-20T07:21:48.522Z,40.20
2023-01-20T07:26:52.813Z,40.26
2023-01-20T07:31:54.546Z,40.77
2023-01-20T07:36:56.293Z,40.64
2023-01-20T07:41:58.091Z,40.32
2023-01-20T07:46:59.913Z,40.66
2023-01-20T07:52:01.619Z,40.42
2023-01-20T07:57:03.283Z,40.41
2023-01-20T08:02:05.119Z,40.54
2023-01-20T08:07:07.007Z,40.64
2023-01-20T08:12:08.774Z,40.55
2023-01-20T08:17:10.526Z,40.50
2023-01-20T08:22:12.307Z,40.49
2023-01-20T08:27:13.997Z,40.46
2023-01-20T08:32:15.688Z,40.51
2023-01-20T08:37:17.726Z,40.73
2023-01-20T08:42:19.698Z,41.53
2023-01-20T08:47:21.392Z,41.42
2023-01-20T08:52:23.144Z,41.02
2023-01-20T08:57:26.598Z,41.14
2023-01-20T09:02:28.674Z,40.75
2023-01-20T09:07:30.507Z,42.63
2023-01-20T09:12:32.273Z,43.12
2023-01-20T09:17:37.105Z,42.54
2023-01-20T09:22:40.543Z,42.35
2023-01-20T09:27:42.220Z,41.73
2023-01-20T09:32:43.968Z,41.83
2023-01-20T09:38:03.959Z,41.68
2023-01-20T09:43:54.191Z,41.59
2023-01-20T09:49:32.290Z,41.80
2023-01-20T09:54:50.620Z,41.19
2023-01-20T10:00:03.222Z,41.58
2023-01-20T10:05:33.187Z,41.42
2023-01-20T10:10:46.742Z,41.43
2023-01-20T10:15:53.785Z,41.26
2023-01-20T10:20:58.426Z,41.42
2023-01-20T10:26:09.529Z,41.35
2023-01-20T10:31:15.032Z,41.40
2023-01-20T10:36:23.434Z,41.42
2023-01-20T10:41:31.352Z,41.37
2023-01-20T10:46:39.158Z,41.48
2023-01-20T10:51:52.816Z,41.32
2023-01-20T10:56:59.154Z,41.42
2023-01-20T11:02:18.645Z,40.50
2023-01-20T11:07:20.407Z,40.75
2023-01-20T11:12:28.927Z,40.42
2023-01-20T11:17:30.916Z,40.47
2023-01-20T11:22:36.671Z,40.29
2023-01-20T11:27:44.245Z,40.12
2023-01-20T11:32:46.030Z,40.51
2023-01-20T11:37:47.820Z,40.15
2023-01-20T11:42:51.776Z,40.15
2023-01-20T11:48:04.971Z,40.13
2023-01-20T11:53:12.580Z,40.20
2023-01-20T11:58:20.810Z,41.19
2023-01-20T12:03:31.717Z,40.63
2023-01-20T12:08:39.024Z,41.09
2023-01-20T12:14:25.752Z,41.25
2023-01-20T12:19:51.877Z,41.83
2023-01-20T12:25:10.749Z,41.88
2023-01-20T12:30:51.295Z,42.24
2023-01-20T12:36:07.922Z,41.45
2023-01-20T12:41:32.779Z,40.84
2023-01-20T12:46:41.882Z,39.82
2023-01-20T12:52:03.813Z,39.23
2023-01-20T12:57:47.359Z,39.19
2023-01-20T13:03:01.734Z,39.32
2023-01-20T13:08:36.954Z,39.39
2023-01-20T13:13:57.584Z,40.99
2023-01-20T13:19:08.924Z,40.44
2023-01-20T13:24:24.442Z,39.32
2023-01-20T13:29:35.159Z,39.33
2023-01-20T13:34:40.495Z,38.53
2023-01-20T13:39:52.202Z,37.50
2023-01-20T13:45:12.124Z,36.85
2023-01-20T13:50:30.807Z,43.39
2023-01-20T13:55:41.663Z,41.49
2023-01-20T14:00:44.634Z,41.26
2023-01-20T14:06:19.563Z,41.35
2023-01-20T14:11:22.660Z,40.94
2023-01-20T14:16:28.481Z,41.14
2023-01-20T14:21:41.580Z,40.24
2023-01-20T14:26:43.305Z,39.88
2023-01-20T14:31:46.297Z,39.55
2023-01-20T14:36:49.074Z,39.11
2023-01-20T14:41:59.242Z,38.85
2023-01-20T14:47:02.813Z,40.14
2023-01-20T14:52:06.122Z,39.70
2023-01-20T14:57:21.941Z,39.32
2023-01-20T15:02:30.451Z,39.26
2023-01-20T15:07:32.200Z,39.50
2023-01-20T15:12:47.395Z,39.47
2023-01-20T15:18:11.145Z,39.69
2023-01-20T15:23:21.398Z,39.42
2023-01-20T15:28:29.670Z,39.57
2023-01-20T15:33:31.469Z,39.64
2023-01-20T15:38:33.226Z,39.68
2023-01-20T15:43:34.881Z,39.66
2023-01-20T15:48:36.567Z,39.95
2023-01-20T15:53:38.205Z,40.10
2023-01-20T15:58:39.901Z,40.18
2023-01-20T16:03:41.936Z,40.11
2023-01-20T16:08:46.605Z,39.92
2023-01-20T16:13:48.518Z,40.08
2023-01-20T16:18:50.760Z,40.01
2023-01-20T16:23:52.496Z,40.12
2023-01-20T16:28:56.681Z,39.99
2023-01-20T16:33:58.509Z,40.02
2023-01-20T16:39:00.175Z,39.70
2023-01-20T16:44:02.046Z,40.01
2023-01-20T16:49:03.834Z,39.67
2023-01-20T16:54:05.690Z,39.70
2023-01-20T16:59:08.256Z,39.66
2023-01-20T17:04:11.018Z,39.82
2023-01-20T17:09:12.804Z,39.58
2023-01-20T17:14:15.758Z,39.82
2023-01-20T17:19:17.918Z,39.81
2023-01-20T17:24:19.605Z,39.86
2023-01-20T17:29:22.165Z,40.09
2023-01-20T17:34:24.009Z,40.21
2023-01-20T17:39:25.856Z,40.33
2023-01-20T17:44:27.605Z,40.27
2023-01-20T17:49:29.318Z,40.10
2023-01-20T17:54:31.491Z,40.14
2023-01-20T17:59:33.203Z,40.14
2023-01-20T18:04:34.875Z,44.50
2023-01-20T18:09:36.586Z,43.51
2023-01-20T18:14:38.840Z,42.55
2023-01-20T18:19:40.582Z,42.39
2023-01-20T18:24:42.334Z,42.06
2023-01-20T18:29:44.198Z,42.13
2023-01-20T18:34:45.991Z,42.19
2023-01-20T18:39:47.723Z,41.96
2023-01-20T18:44:49.524Z,41.81
2023-01-20T18:49:51.311Z,41.76
2023-01-20T18:54:53.292Z,41.82
2023-01-20T18:59:55.217Z,41.58
2023-01-20T19:04:56.870Z,41.40
2023-01-20T19:09:58.586Z,41.67
2023-01-20T19:15:00.267Z,44.15
2023-01-20T19:20:02.168Z,43.20
2023-01-20T19:25:03.992Z,43.95
2023-01-20T19:30:06.347Z,42.87
2023-01-20T19:35:09.254Z,42.06
2023-01-20T19:40:11.468Z,41.76
2023-01-20T19:45:13.436Z,42.00
2023-01-20T19:50:15.746Z,41.70
2023-01-20T19:55:17.646Z,41.41
2023-01-20T20:00:19.936Z,41.99
2023-01-20T20:05:21.691Z,41.70
2023-01-20T20:10:23.446Z,41.64
2023-01-20T20:15:25.191Z,41.81
2023-01-20T20:20:27.162Z,41.72
2023-01-20T20:25:28.893Z,41.41
2023-01-20T20:30:31.065Z,41.67
2023-01-20T20:35:35.824Z,41.92
2023-01-20T20:40:37.795Z,42.25
2023-01-20T20:45:39.509Z,41.51
2023-01-20T20:50:41.239Z,42.26
2023-01-20T20:55:43.003Z,41.91
2023-01-20T21:00:49.979Z,41.95
2023-01-20T21:05:51.705Z,41.75
2023-01-20T21:10:53.465Z,43.23
2023-01-20T21:16:00.633Z,43.02
2023-01-20T21:21:04.107Z,42.00
2023-01-20T21:26:11.937Z,42.01
2023-01-20T21:31:16.827Z,41.87
2023-01-20T21:36:18.577Z,41.56
2023-01-20T21:41:20.588Z,41.47
2023-01-20T21:46:23.880Z,41.54
2023-01-20T21:51:44.178Z,41.39
2023-01-20T21:56:46.239Z,41.12
2023-01-20T22:01:48.121Z,41.63
2023-01-20T22:06:49.899Z,43.50
2023-01-20T22:11:51.682Z,42.22
2023-01-20T22:16:53.380Z,46.13
2023-01-20T22:21:56.905Z,45.27
2023-01-20T22:26:58.817Z,44.71
2023-01-20T22:32:03.327Z,44.65
2023-01-20T22:37:05.000Z,43.88
2023-01-20T22:42:07.721Z,42.67
2023-01-20T22:47:11.018Z,42.86
2023-01-20T22:52:12.937Z,42.28
2023-01-20T22:57:15.221Z,42.52
2023-01-20T23:02:16.968Z,42.50
2023-01-20T23:07:18.965Z,42.20
2023-01-20T23:12:20.635Z,42.16
2023-01-20T23:17:22.364Z,41.83
2023-01-20T23:22:25.000Z,42.11
2023-01-20T23:27:26.711Z,41.99
2023-01-20T23:32:28.411Z,41.72
2023-01-20T23:37:30.352Z,41.87
2023-01-20T23:42:32.016Z,41.83
2023-01-20T23:47:33.946Z,41.85
2023-01-20T23:52:35.792Z,41.87
2023-01-20T23:57:37.462Z,41.48
